createdAt,value
2018-01-12T00:00:36.700Z,4.60
2018-01-12T00:03:05.020Z,4.60
2018-01-12T00:05:33.377Z,4.70
2018-01-12T00:08:01.712Z,4.60
2018-01-12T00:10:30.029Z,4.60
2018-01-12T00:12:58.364Z,4.70
2018-01-12T00:15:26.692Z,4.70
2018-01-12T00:17:55.032Z,4.60
2018-01-12T00:20:24.121Z,4.60
2018-01-12T00:22:53.232Z,4.60
2018-01-12T00:25:22.330Z,4.60
2018-01-12T00:27:51.495Z,4.60
2018-01-12T00:30:19.815Z,4.60
2018-01-12T00:32:48.914Z,4.70
2018-01-12T00:35:17.248Z,4.60
2018-01-12T00:37:45.620Z,4.60
2018-01-12T00:40:13.940Z,4.60
2018-01-12T00:42:43.037Z,4.70
2018-01-12T00:45:12.156Z,4.70
2018-01-12T00:47:40.478Z,4.70
2018-01-12T00:50:08.819Z,4.70
2018-01-12T00:52:37.120Z,4.70
2018-01-12T00:55:05.451Z,4.60
2018-01-12T00:57:34.616Z,4.70
2018-01-12T01:00:03.036Z,4.60
2018-01-12T01:02:31.348Z,4.60
2018-01-12T01:04:59.709Z,4.70
2018-01-12T01:07:28.020Z,4.70
2018-01-12T01:09:56.352Z,4.70
2018-01-12T01:12:25.463Z,4.70
2018-01-12T01:14:53.781Z,4.70
2018-01-12T01:17:22.118Z,4.70
2018-01-12T01:19:50.457Z,4.70
2018-01-12T01:22:18.820Z,4.70
2018-01-12T01:24:47.143Z,4.70
2018-01-12T01:27:15.506Z,4.70
2018-01-12T01:29:44.598Z,4.70
2018-01-12T01:32:13.102Z,4.70
2018-01-12T01:34:41.432Z,4.70
2018-01-12T01:37:09.766Z,4.70
2018-01-12T01:39:38.127Z,4.80
2018-01-12T01:42:07.214Z,4.70
2018-01-12T01:44:36.328Z,4.60
2018-01-12T01:47:05.443Z,4.70
2018-01-12T01:49:33.872Z,4.60
2018-01-12T01:52:02.185Z,4.70
2018-01-12T01:54:30.525Z,4.70
2018-01-12T01:56:58.852Z,4.70
2018-01-12T01:59:27.186Z,4.70
2018-01-12T02:01:55.512Z,4.70
2018-01-12T02:04:23.861Z,4.70
2018-01-12T02:06:52.947Z,4.60
2018-01-12T02:09:21.269Z,4.60
2018-01-12T02:11:49.606Z,4.70
2018-01-12T02:14:17.920Z,4.70
2018-01-12T02:16:46.261Z,4.70
2018-01-12T02:19:15.363Z,4.70
2018-01-12T02:21:43.709Z,4.70
2018-01-12T02:24:12.036Z,4.70
2018-01-12T02:26:40.371Z,4.70
2018-01-12T02:29:08.680Z,4.70
2018-01-12T02:31:37.029Z,4.70
2018-01-12T02:34:05.366Z,4.70
2018-01-12T02:36:33.906Z,4.60
2018-01-12T02:39:02.294Z,4.60
2018-01-12T02:41:30.620Z,4.60
2018-01-12T02:43:59.736Z,4.60
2018-01-12T02:46:28.049Z,4.60
2018-01-12T02:48:56.396Z,4.60
2018-01-12T02:51:24.725Z,4.60
2018-01-12T02:53:53.832Z,4.50
2018-01-12T02:56:22.161Z,4.60
2018-01-12T02:58:50.509Z,4.60
2018-01-12T03:01:18.834Z,4.60
2018-01-12T03:03:47.172Z,4.60
2018-01-12T03:06:15.484Z,4.60
2018-01-12T03:08:43.824Z,4.70
2018-01-12T03:11:12.140Z,4.50
2018-01-12T03:13:40.493Z,4.40
2018-01-12T03:16:08.809Z,4.30
2018-01-12T03:18:37.896Z,4.30
2018-01-12T03:21:06.240Z,4.30
2018-01-12T03:23:34.557Z,4.20
2018-01-12T03:26:02.923Z,4.20
2018-01-12T03:28:31.269Z,4.30
2018-01-12T03:30:59.724Z,4.30
2018-01-12T03:33:28.926Z,4.30
2018-01-12T03:35:58.030Z,4.40
2018-01-12T03:38:26.766Z,4.40
2018-01-12T03:40:55.111Z,4.40
2018-01-12T03:43:23.441Z,4.40
2018-01-12T03:45:52.530Z,4.20
2018-01-12T03:48:20.876Z,4.20
2018-01-12T03:50:49.206Z,4.30
2018-01-12T03:53:18.337Z,4.10
2018-01-12T03:55:47.590Z,4.10
2018-01-12T03:58:15.956Z,4.10
2018-01-12T04:00:44.263Z,4.20
2018-01-12T04:03:12.684Z,4.30
2018-01-12T04:05:41.748Z,4.30
2018-01-12T04:08:10.086Z,4.30
2018-01-12T04:10:38.414Z,4.30
2018-01-12T04:13:06.760Z,4.10
2018-01-12T04:15:35.119Z,4.10
2018-01-12T04:18:05.079Z,4.20
2018-01-12T04:20:34.180Z,4.30
2018-01-12T04:23:02.499Z,4.30
2018-01-12T04:25:30.836Z,4.30
2018-01-12T04:27:59.912Z,4.30
2018-01-12T04:30:28.246Z,4.30
2018-01-12T04:32:56.569Z,4.30
2018-01-12T04:35:24.918Z,4.40
2018-01-12T04:37:53.235Z,4.50
2018-01-12T04:40:22.336Z,4.50
2018-01-12T04:42:51.421Z,4.60
2018-01-12T04:45:19.789Z,4.60
2018-01-12T04:47:48.099Z,4.60
2018-01-12T04:50:17.185Z,4.50
2018-01-12T04:52:46.283Z,4.40
2018-01-12T04:55:15.399Z,4.30
2018-01-12T04:57:43.723Z,4.30
2018-01-12T05:00:12.036Z,4.40
2018-01-12T05:02:40.403Z,4.30
2018-01-12T05:05:08.722Z,4.20
2018-01-12T05:07:37.068Z,4.30
2018-01-12T05:10:05.399Z,4.40
2018-01-12T05:12:33.757Z,4.40
2018-01-12T05:15:02.082Z,4.30
2018-01-12T05:17:30.442Z,4.30
2018-01-12T05:19:58.766Z,4.40
2018-01-12T05:22:27.875Z,4.30
2018-01-12T05:24:56.962Z,4.20
2018-01-12T05:27:26.057Z,4.30
2018-01-12T05:29:55.149Z,4.30
2018-01-12T05:32:24.276Z,4.30
2018-01-12T05:34:52.592Z,4.30
2018-01-12T05:37:20.899Z,4.10
2018-01-12T05:39:50.030Z,4.10
2018-01-12T05:42:18.345Z,4.10
2018-01-12T05:44:46.706Z,4.20
2018-01-12T05:47:15.018Z,4.10
2018-01-12T05:49:43.355Z,4.10
2018-01-12T05:52:11.659Z,4.00
2018-01-12T05:54:39.994Z,4.00
2018-01-12T05:57:08.304Z,4.10
2018-01-12T05:59:36.652Z,4.10
2018-01-12T06:02:16.635Z,4.10
2018-01-12T06:04:56.800Z,4.20
2018-01-12T06:07:25.121Z,4.30
2018-01-12T06:09:54.208Z,4.40
2018-01-12T06:12:23.316Z,4.30
2018-01-12T06:14:52.395Z,4.30
2018-01-12T06:17:20.736Z,4.30
2018-01-12T06:19:49.068Z,4.40
2018-01-12T06:22:18.163Z,4.50
2018-01-12T06:24:47.252Z,4.50
2018-01-12T06:27:16.347Z,4.50
2018-01-12T06:29:45.424Z,4.50
2018-01-12T06:32:13.747Z,4.50
2018-01-12T06:34:42.056Z,4.50
2018-01-12T06:37:10.412Z,4.50
2018-01-12T06:39:38.743Z,4.40
2018-01-12T06:42:07.058Z,4.50
2018-01-12T06:44:35.400Z,4.50
2018-01-12T06:47:03.726Z,4.50
2018-01-12T06:49:32.075Z,4.50
2018-01-12T06:52:01.147Z,4.50
2018-01-12T06:54:29.476Z,4.40
2018-01-12T06:56:57.796Z,4.40
2018-01-12T06:59:26.169Z,4.40
2018-01-12T07:01:54.477Z,4.40
2018-01-12T07:04:22.814Z,4.40
2018-01-12T07:06:51.126Z,4.50
2018-01-12T07:09:19.458Z,4.50
2018-01-12T07:11:47.775Z,4.50
2018-01-12T07:14:16.106Z,4.50
2018-01-12T07:16:44.425Z,4.50
2018-01-12T07:19:12.740Z,4.50
2018-01-12T07:21:53.809Z,4.50
2018-01-12T07:24:22.888Z,4.50
2018-01-12T07:26:51.218Z,4.50
2018-01-12T07:29:19.525Z,4.50
2018-01-12T07:31:47.900Z,4.60
2018-01-12T07:34:16.247Z,4.40
2018-01-12T07:36:44.585Z,4.20
2018-01-12T07:39:12.946Z,4.30
2018-01-12T07:41:41.272Z,4.30
2018-01-12T07:44:09.609Z,4.30
2018-01-12T07:46:37.940Z,4.30
2018-01-12T07:49:06.250Z,4.20
2018-01-12T07:51:34.599Z,4.30
2018-01-12T07:54:02.899Z,4.20
2018-01-12T07:56:31.204Z,4.40
2018-01-12T07:58:59.598Z,4.40
2018-01-12T08:01:33.715Z,4.30
2018-01-12T08:04:02.074Z,4.20
2018-01-12T08:06:30.388Z,4.40
2018-01-12T08:08:59.484Z,4.50
2018-01-12T08:11:28.548Z,4.60
2018-01-12T08:13:56.892Z,4.60
2018-01-12T08:16:25.220Z,4.60
2018-01-12T08:18:53.557Z,4.50
2018-01-12T08:21:21.875Z,4.50
2018-01-12T08:23:50.226Z,4.50
2018-01-12T08:26:18.545Z,4.60
2018-01-12T08:28:46.906Z,4.60
2018-01-12T08:31:15.224Z,4.60
2018-01-12T08:33:43.530Z,4.40
2018-01-12T08:36:11.847Z,4.40
2018-01-12T08:38:40.160Z,4.40
2018-01-12T08:41:08.495Z,4.50
2018-01-12T08:43:36.804Z,4.50
2018-01-12T08:46:05.914Z,4.70
2018-01-12T08:48:34.232Z,4.70
2018-01-12T08:51:02.564Z,4.60
2018-01-12T08:53:30.871Z,4.60
2018-01-12T08:55:59.208Z,4.60
2018-01-12T08:58:29.010Z,4.60
2018-01-12T09:00:57.352Z,4.60
2018-01-12T09:03:25.674Z,4.60
2018-01-12T09:05:54.756Z,4.80
2018-01-12T09:08:23.117Z,4.70
2018-01-12T09:10:51.428Z,4.60
2018-01-12T09:16:27.935Z,4.70
2018-01-12T09:19:08.024Z,4.70
2018-01-12T09:21:37.169Z,4.80
2018-01-12T09:24:18.079Z,4.30
2018-01-12T09:26:46.383Z,4.30
2018-01-12T09:29:14.727Z,4.30
2018-01-12T09:31:44.000Z,4.50
2018-01-12T09:34:24.841Z,4.70
2018-01-12T09:36:53.167Z,4.70
2018-01-12T09:39:33.283Z,4.70
2018-01-12T09:42:01.614Z,4.50
2018-01-12T09:44:29.932Z,4.60
2018-01-12T09:47:09.983Z,4.70
2018-01-12T09:49:47.068Z,4.60
2018-01-12T09:52:15.399Z,4.70
2018-01-12T09:54:43.736Z,4.60
2018-01-12T09:57:12.054Z,4.60
2018-01-12T09:59:44.223Z,4.70
2018-01-12T10:02:12.564Z,4.50
2018-01-12T10:04:40.894Z,4.60
2018-01-12T10:07:17.116Z,4.70
2018-01-12T10:09:48.214Z,4.50
2018-01-12T10:12:16.553Z,4.50
2018-01-12T10:14:45.649Z,4.70
2018-01-12T10:17:15.481Z,4.70
2018-01-12T10:22:59.429Z,4.80
2018-01-12T10:25:28.530Z,4.80
2018-01-12T10:27:57.606Z,4.80
2018-01-12T10:33:58.911Z,4.90
2018-01-12T10:37:01.746Z,4.80
2018-01-12T10:39:33.692Z,4.90
2018-01-12T10:42:08.299Z,5.00
2018-01-12T10:44:36.637Z,5.10
2018-01-12T10:47:22.803Z,5.10
2018-01-12T10:49:57.110Z,5.10
2018-01-12T10:52:31.957Z,5.20
2018-01-12T10:55:00.290Z,5.10
2018-01-12T10:57:28.624Z,5.10
2018-01-12T10:59:56.946Z,5.10
2018-01-12T11:02:25.275Z,5.10
2018-01-12T11:04:53.607Z,5.10
2018-01-12T11:07:21.936Z,5.20
2018-01-12T11:09:50.255Z,5.20
2018-01-12T11:12:20.361Z,5.10
2018-01-12T11:14:48.676Z,5.30
2018-01-12T11:17:16.983Z,4.90
2018-01-12T11:19:45.371Z,4.90
2018-01-12T11:22:13.679Z,4.90
2018-01-12T11:24:42.765Z,4.90
2018-01-12T11:27:11.063Z,4.90
2018-01-12T11:29:39.390Z,5.10
2018-01-12T11:32:07.710Z,5.10
2018-01-12T11:34:36.821Z,5.10
2018-01-12T11:37:05.909Z,5.20
2018-01-12T11:39:35.022Z,5.20
2018-01-12T11:42:03.361Z,5.20
2018-01-12T11:44:31.684Z,5.20
2018-01-12T11:47:00.004Z,5.30
2018-01-12T11:49:28.347Z,5.40
2018-01-12T11:51:56.665Z,5.40
2018-01-12T11:54:25.020Z,5.40
2018-01-12T11:56:53.353Z,5.30
2018-01-12T11:59:22.425Z,5.50
2018-01-12T12:01:50.755Z,5.40
2018-01-12T12:04:19.067Z,5.50
2018-01-12T12:06:47.403Z,5.50
2018-01-12T12:09:15.715Z,5.40
2018-01-12T12:11:44.048Z,5.40
2018-01-12T12:14:13.136Z,5.00
2018-01-12T12:16:42.237Z,4.90
2018-01-12T12:19:11.334Z,5.10
2018-01-12T12:21:40.399Z,5.20
2018-01-12T12:24:08.740Z,5.20
2018-01-12T12:26:37.055Z,5.00
2018-01-12T12:29:05.395Z,5.00
2018-01-12T12:31:33.700Z,5.00
2018-01-12T12:34:02.023Z,5.00
2018-01-12T12:36:30.371Z,5.20
2018-01-12T12:38:58.698Z,5.00
2018-01-12T12:41:27.039Z,5.10
2018-01-12T12:43:55.347Z,5.20
2018-01-12T12:46:23.739Z,5.20
2018-01-12T12:48:52.051Z,5.30
2018-01-12T12:51:20.384Z,5.30
2018-01-12T12:53:48.696Z,5.30
2018-01-12T12:56:17.037Z,5.30
2018-01-12T12:58:46.109Z,5.40
2018-01-12T13:01:14.448Z,5.40
2018-01-12T13:03:42.744Z,5.40
2018-01-12T13:06:11.073Z,5.50
2018-01-12T13:08:39.400Z,5.50
2018-01-12T13:11:07.726Z,5.30
2018-01-12T13:13:36.056Z,5.30
2018-01-12T13:16:04.368Z,5.30
2018-01-12T13:18:33.463Z,5.30
2018-01-12T13:21:01.780Z,5.30
2018-01-12T13:23:30.116Z,5.40
2018-01-12T13:25:59.216Z,5.30
2018-01-12T13:28:29.174Z,5.30
2018-01-12T13:30:57.495Z,5.30
2018-01-12T13:33:26.002Z,5.40
2018-01-12T13:35:55.083Z,5.10
2018-01-12T13:38:23.451Z,5.10
2018-01-12T13:40:51.743Z,5.00
2018-01-12T13:43:20.064Z,5.20
2018-01-12T13:45:48.404Z,5.00
2018-01-12T13:48:16.744Z,5.10
2018-01-12T13:50:45.081Z,5.00
2018-01-12T13:53:13.401Z,5.00
2018-01-12T13:55:41.739Z,5.00
2018-01-12T13:58:10.051Z,4.90
2018-01-12T14:00:38.403Z,4.90
2018-01-12T14:03:06.717Z,5.10
2018-01-12T14:05:35.037Z,5.10
2018-01-12T14:08:04.152Z,5.00
2018-01-12T14:10:32.467Z,5.00
2018-01-12T14:13:00.799Z,4.90
2018-01-12T14:15:29.110Z,4.80
2018-01-12T14:17:57.437Z,4.80
2018-01-12T14:20:26.528Z,4.80
2018-01-12T14:22:54.856Z,4.80
2018-01-12T14:25:23.167Z,4.90
2018-01-12T14:27:51.519Z,5.10
2018-01-12T14:30:19.833Z,4.90
2018-01-12T14:32:48.186Z,4.90
2018-01-12T14:35:16.502Z,4.90
2018-01-12T14:37:44.812Z,4.90
2018-01-12T14:40:13.136Z,4.80
2018-01-12T14:42:41.444Z,4.80
2018-01-12T14:45:10.539Z,4.90
2018-01-12T14:47:39.622Z,5.00
2018-01-12T14:50:07.944Z,4.90
2018-01-12T14:52:36.242Z,5.00
2018-01-12T14:55:04.568Z,5.00
2018-01-12T14:57:33.654Z,5.00
2018-01-12T15:00:01.992Z,5.00
2018-01-12T15:02:30.318Z,5.00
2018-01-12T15:04:58.679Z,4.90
2018-01-12T15:07:26.979Z,4.90
2018-01-12T15:09:55.300Z,4.80
2018-01-12T15:12:23.628Z,4.80
2018-01-12T15:14:51.930Z,4.90
2018-01-12T15:17:20.259Z,4.90
2018-01-12T15:19:48.563Z,4.90
2018-01-12T15:22:16.887Z,4.80
2018-01-12T15:24:45.199Z,4.80
2018-01-12T15:27:13.531Z,4.80
2018-01-12T15:29:41.836Z,4.90
2018-01-12T15:32:10.175Z,4.90
2018-01-12T15:34:39.241Z,4.80
2018-01-12T15:37:07.568Z,4.80
2018-01-12T15:39:35.895Z,4.90
2018-01-12T15:42:04.205Z,4.80
2018-01-12T15:44:33.317Z,4.80
2018-01-12T15:47:01.636Z,4.80
2018-01-12T15:49:29.958Z,4.80
2018-01-12T15:51:59.038Z,4.70
2018-01-12T15:54:27.372Z,4.70
2018-01-12T15:56:55.671Z,4.80
2018-01-12T15:59:23.997Z,4.80
2018-01-12T16:01:52.313Z,4.80
2018-01-12T16:04:20.635Z,4.70
2018-01-12T16:06:49.730Z,4.60
2018-01-12T16:09:18.812Z,4.70
2018-01-12T16:11:47.138Z,4.60
2018-01-12T16:14:15.458Z,4.70
2018-01-12T16:16:43.780Z,4.70
2018-01-12T16:19:12.867Z,4.80
2018-01-12T16:21:41.968Z,4.70
2018-01-12T16:24:11.045Z,4.70
2018-01-12T16:26:40.140Z,4.70
2018-01-12T16:29:08.440Z,4.70
2018-01-12T16:31:37.552Z,4.70
2018-01-12T16:34:05.850Z,4.70
2018-01-12T16:36:34.174Z,4.80
2018-01-12T16:39:02.616Z,4.70
2018-01-12T16:41:30.959Z,4.80
2018-01-12T16:43:59.280Z,4.80
2018-01-12T16:46:27.613Z,4.70
2018-01-12T16:48:56.713Z,4.70
2018-01-12T16:51:25.019Z,4.70
2018-01-12T16:53:53.344Z,4.70
2018-01-12T16:56:21.645Z,4.80
2018-01-12T16:58:49.977Z,4.80
2018-01-12T17:01:18.285Z,4.70
2018-01-12T17:03:47.388Z,4.80
2018-01-12T17:06:16.461Z,4.80
2018-01-12T17:08:44.801Z,4.80
2018-01-12T17:11:13.110Z,4.70
2018-01-12T17:13:41.434Z,4.80
2018-01-12T17:16:09.738Z,4.70
2018-01-12T17:18:38.101Z,4.70
2018-01-12T17:21:06.400Z,4.80
2018-01-12T17:23:34.736Z,4.90
2018-01-12T17:26:03.812Z,4.90
2018-01-12T17:28:32.150Z,4.90
2018-01-12T17:31:00.460Z,4.80
2018-01-12T17:33:28.794Z,4.90
2018-01-12T17:35:57.109Z,4.80
2018-01-12T17:38:25.436Z,4.90
2018-01-12T17:40:53.776Z,4.90
2018-01-12T17:43:22.082Z,4.90
2018-01-12T17:45:51.184Z,5.00
2018-01-12T17:48:20.260Z,4.90
2018-01-12T17:50:49.358Z,4.90
2018-01-12T17:53:17.684Z,4.90
2018-01-12T17:55:46.012Z,4.80
2018-01-12T17:58:14.308Z,4.90
2018-01-12T18:00:43.408Z,4.90
2018-01-12T18:03:11.722Z,4.80
2018-01-12T18:05:40.030Z,4.80
2018-01-12T18:08:08.348Z,4.90
2018-01-12T18:10:36.660Z,5.00
2018-01-12T18:13:04.998Z,5.00
2018-01-12T18:15:34.077Z,5.00
2018-01-12T18:18:02.403Z,5.00
2018-01-12T18:20:30.715Z,4.80
2018-01-12T18:22:59.074Z,4.80
2018-01-12T18:25:27.375Z,4.90
2018-01-12T18:27:55.703Z,4.90
2018-01-12T18:30:24.016Z,4.90
2018-01-12T18:32:52.344Z,4.90
2018-01-12T18:35:20.643Z,4.70
2018-01-12T18:37:48.980Z,4.90
2018-01-12T18:40:17.286Z,4.80
2018-01-12T18:42:45.621Z,4.80
2018-01-12T18:45:13.918Z,4.80
2018-01-12T18:47:43.016Z,4.80
2018-01-12T18:50:12.084Z,4.90
2018-01-12T18:52:40.419Z,4.90
2018-01-12T18:55:08.732Z,4.90
2018-01-12T18:57:37.036Z,4.90
2018-01-12T19:00:05.437Z,4.80
2018-01-12T19:02:34.523Z,4.80
2018-01-12T19:05:02.865Z,4.90
2018-01-12T19:07:31.173Z,4.90
2018-01-12T19:10:00.278Z,4.80
2018-01-12T19:12:29.348Z,4.70
2018-01-12T19:14:57.684Z,4.70
2018-01-12T19:17:25.989Z,4.70
2018-01-12T19:19:54.319Z,4.60
2018-01-12T19:22:23.419Z,4.50
2018-01-12T19:24:52.500Z,4.60
2018-01-12T19:27:20.818Z,4.50
2018-01-12T19:29:49.194Z,4.50
2018-01-12T19:32:17.505Z,4.50
2018-01-12T19:34:45.844Z,4.60
2018-01-12T19:37:14.164Z,4.50
2018-01-12T19:39:42.472Z,4.50
2018-01-12T19:42:11.563Z,4.50
2018-01-12T19:44:39.867Z,4.50
2018-01-12T19:47:08.199Z,4.50
2018-01-12T19:49:36.505Z,4.50
2018-01-12T19:52:05.594Z,4.50
2018-01-12T19:54:34.667Z,4.50
2018-01-12T19:57:03.008Z,4.50
2018-01-12T19:59:31.341Z,4.50
2018-01-12T20:01:59.655Z,4.50
2018-01-12T20:04:27.994Z,4.50
2018-01-12T20:06:56.295Z,4.50
2018-01-12T20:09:25.401Z,4.50
2018-01-12T20:11:53.708Z,4.50
2018-01-12T20:14:22.038Z,4.50
2018-01-12T20:16:51.115Z,4.40
2018-01-12T20:19:19.450Z,4.40
2018-01-12T20:21:47.746Z,4.40
2018-01-12T20:24:16.113Z,4.40
2018-01-12T20:26:44.454Z,4.40
2018-01-12T20:29:13.551Z,4.30
2018-01-12T20:31:42.677Z,4.30
2018-01-12T20:34:11.026Z,4.30
2018-01-12T20:36:40.120Z,4.30
2018-01-12T20:39:09.204Z,4.20
2018-01-12T20:41:37.545Z,4.20
2018-01-12T20:44:05.862Z,4.20
2018-01-12T20:46:34.197Z,4.20
2018-01-12T20:49:02.504Z,4.20
2018-01-12T20:51:30.831Z,4.20
2018-01-12T20:53:59.186Z,4.10
2018-01-12T20:56:27.567Z,4.10
2018-01-12T20:58:56.634Z,3.90
2018-01-12T21:01:24.973Z,3.90
2018-01-12T21:03:53.348Z,3.90
2018-01-12T21:06:21.701Z,3.90
2018-01-12T21:08:50.837Z,3.80
2018-01-12T21:11:19.186Z,3.80
2018-01-12T21:13:47.506Z,3.70
2018-01-12T21:16:15.821Z,3.70
2018-01-12T21:18:44.141Z,3.70
2018-01-12T21:21:12.450Z,3.70
2018-01-12T21:23:40.826Z,3.70
2018-01-12T21:26:09.143Z,3.70
2018-01-12T21:28:37.678Z,3.70
2018-01-12T21:31:05.984Z,3.70
2018-01-12T21:33:34.333Z,3.60
2018-01-12T21:36:02.702Z,3.50
2018-01-12T21:38:31.013Z,3.50
2018-01-12T21:40:59.379Z,3.40
2018-01-12T21:43:27.721Z,3.40
2018-01-12T21:45:56.050Z,3.30
2018-01-12T21:48:24.367Z,3.30
2018-01-12T21:50:53.468Z,3.30
2018-01-12T21:53:22.604Z,3.30
2018-01-12T21:55:50.963Z,3.30
2018-01-12T21:58:19.248Z,3.30
2018-01-12T22:00:47.621Z,3.30
2018-01-12T22:03:15.971Z,3.30
2018-01-12T22:05:45.061Z,3.30
2018-01-12T22:08:14.176Z,3.30
2018-01-12T22:10:43.269Z,3.30
2018-01-12T22:13:12.364Z,3.20
2018-01-12T22:15:41.499Z,3.30
2018-01-12T22:18:09.829Z,3.20
2018-01-12T22:20:38.947Z,3.40
2018-01-12T22:23:08.072Z,3.30
2018-01-12T22:25:36.427Z,3.20
2018-01-12T22:28:04.769Z,3.30
2018-01-12T22:30:33.076Z,3.30
2018-01-12T22:33:02.176Z,3.20
2018-01-12T22:35:30.497Z,3.20
2018-01-12T22:37:58.806Z,3.30
2018-01-12T22:40:27.120Z,3.30
2018-01-12T22:42:55.463Z,3.30
2018-01-12T22:45:23.773Z,3.30
2018-01-12T22:47:52.138Z,3.30
2018-01-12T22:50:20.456Z,3.30
2018-01-12T22:52:48.822Z,3.30
2018-01-12T22:55:17.143Z,3.30
2018-01-12T22:57:45.485Z,3.40
2018-01-12T23:00:13.852Z,3.40
2018-01-12T23:02:42.178Z,3.40
2018-01-12T23:05:10.524Z,3.50
2018-01-12T23:07:38.878Z,3.50
2018-01-12T23:10:07.963Z,3.50
2018-01-12T23:12:36.307Z,3.50
2018-01-12T23:15:04.651Z,3.40
2018-01-12T23:17:32.975Z,3.50
2018-01-12T23:20:01.269Z,3.40
2018-01-12T23:22:30.390Z,3.50
2018-01-12T23:24:58.716Z,3.50
2018-01-12T23:27:27.058Z,3.50
2018-01-12T23:29:55.370Z,3.50
2018-01-12T23:32:23.701Z,3.60
2018-01-12T23:34:52.015Z,3.50
2018-01-12T23:37:20.368Z,3.50
2018-01-12T23:39:48.682Z,3.60
2018-01-12T23:42:17.016Z,3.70
2018-01-12T23:44:45.333Z,3.70
2018-01-12T23:47:13.829Z,3.70
2018-01-12T23:49:42.188Z,3.80
2018-01-12T23:52:10.511Z,3.70
2018-01-12T23:54:38.886Z,3.50
2018-01-12T23:57:07.186Z,3.60
2018-01-12T23:59:35.503Z,3.70
